Senecaville, OH (43780)

1:16 PM EDT on August 21, 2014 (GMT -0400)
Downtown Cambridge | Change Station
CLOSE
Current Station
Personal Weather Station
Location: Cambridge, OH
Elevation: 876 ft
Nearby Weather Stations

Elev 876 ft 40.03 °N, 81.59 °W | Updated 2 seconds ago

Overcast
Overcast
71.0 °F
Feels Like 71.0 °F
N
6.0
Wind Variable Wind from WSW
Gusts 9.0 mph

Today
High -- | Low -- °F
--% Chance of Precip.
Yesterday
High -- | Low -- °F
Precip. -- in
6:43 AM 8:13 PM
Waning Crescent, 13% visible
Pressure 30.09 in
Visibility 9.0 miles
Clouds Few 800 ft
Overcast 6000 ft
Dew Point 68 °F
Humidity 92%
Rainfall 0.05 in
Snow Depth Not available.
UV 3 out of 12
Pollen 8.70 out of 12
Air Quality Not available.
Flu Activity Not available.
METAR KZZV 211653Z AUTO 23006KT 9SM FEW008 OVC060 22/21 A3010 RMK AO2 LTG DSNT SW RAE02 SLP188 P0000 T02220206

More Conditions Fewer Conditions

Pressure 30.09 in
Visibility 9.0 miles
Clouds Few 800 ft
Overcast 6000 ft
Dew Point 68 °F
Humidity 92%
Rainfall 0.05 in
Snow Depth Not available.
UV 3 out of 12
Pollen 8.70 out of 12
Air Quality Not available.
Flu Activity Not available.
METAR KZZV 211653Z AUTO 23006KT 9SM FEW008 OVC060 22/21 A3010 RMK AO2 LTG DSNT SW RAE02 SLP188 P0000 T02220206

More Conditions Fewer Conditions

10-Day Weather Forecast

Almanac

Astronomy

Aug. 21, 2014 Rise Set
Actual Time 6:43 AM EDT 8:13 PM EDT
Civil Twilight 6:14 AM EDT 8:42 PM EDT
Nautical Twilight 5:40 AM EDT 9:16 PM EDT
Astronomical Twilight 5:04 AM EDT 9:52 PM EDT
Moon 3:12 AM EDT 5:41 PM EDT
Length of Visible Light 14h 27m
Length of Day
13h 30m
Tomorrow will be 2m 24s shorter.
Waning Crescent, 13% of the Moon is Illuminated
Today
Waning Crescent
Aug 25
New
Sep 2
First Quarter
Sep 8
Full
Sep 15
Last Quarter

Today's Extremes

State Highs State Lows

Community

WunderPhotos

Upload Photos

1,745,966 photos uploaded!

Nearby

Snow Depth

Station Depth Elevation
No new snow has been reported.

Earthquake Activity

City Distance Mag. Time & Date
No recent earthquake activity has been reported nearby.
Minimum magnitude displayed is 2.5.

Coastal Water Temperatures

Place Temperature
No Stations Reporting

Nearby Weather Stations